ADDS METAR Data INFO
IDs: Format: Raw Decoded Include TAF

Data at: 1015 UTC 14 Dec 2017

KLVN 140955Z AUTO 00000KT 10SM M12/M12 A3000 RMK AO2
KLVN 140935Z AUTO 26003KT 10SM M12/M12 A3000 RMK AO2
KLVN 140915Z AUTO 26003KT 10SM CLR M11/M11 A3000 RMK AO2
KLVN 140855Z AUTO 28004KT 10SM M11/M12 A3000 RMK AO2
KLVN 140835Z AUTO 29004KT 10SM M10/M11 A3000 RMK AO2
KLVN 140815Z AUTO 29003KT 10SM M09/M11 A2999 RMK AO2
KLVN 140755Z AUTO 26003KT 10SM M09/M11 A2999 RMK AO2
KLVN 140735Z AUTO 00000KT 10SM M11/M11 A2999 RMK AO2
KLVN 140715Z AUTO 00000KT 7SM OVC041 M11/M11 A2998 RMK AO2
KLVN 140655Z AUTO 25004KT 7SM SCT041 M11/M11 A2998 RMK AO2
KLVN 140635Z AUTO 25003KT 10SM CLR M11/M11 A2998 RMK AO2
KLVN 140615Z AUTO 26004KT 10SM M11/M11 A2998 RMK AO2
KLVN 140555Z AUTO 27003KT 7SM CLR M12/M12 A2997 RMK AO2
KLVN 140535Z AUTO 27003KT 10SM M11/M11 A2996 RMK AO2
KLVN 140515Z AUTO 00000KT 10SM M10/M11 A2995 RMK AO2
KLVN 140455Z AUTO 00000KT 10SM CLR M11/M11 A2995 RMK AO2
KLVN 140435Z AUTO 34004KT 10SM CLR M09/M11 A2994 RMK AO2
KLVN 140415Z AUTO 33004KT 10SM CLR M09/M11 A2994 RMK AO2
KLVN 140355Z AUTO 32004KT 10SM CLR M09/M11 A2992 RMK AO2
KLVN 140335Z AUTO 33005KT 10SM CLR M08/M10 A2992 RMK AO2
KLVN 140315Z AUTO 35005KT 10SM CLR M08/M09 A2991 RMK AO2
KLVN 140255Z AUTO 36006KT 10SM CLR M07/M09 A2990 RMK AO2
KLVN 140235Z AUTO 36006KT 10SM SCT020 M07/M09 A2990 RMK AO2
KLVN 140215Z AUTO 35008KT 10SM BKN022 M06/M08 A2990 RMK AO2
KLVN 140155Z AUTO 34009KT 10SM OVC024 M06/M08 A2989 RMK AO2
KLVN 140135Z AUTO 34008KT 10SM OVC026 M06/M08 A2988 RMK AO2
KLVN 140115Z AUTO 34009KT 10SM BKN028 BKN065 M06/M08 A2988 RMK AO2
KLVN 140055Z AUTO 33010G16KT 10SM BKN065 M06/M08 A2986 RMK AO2
KLVN 140035Z AUTO 33013KT 10SM SCT023 OVC065 M06/M08 A2984 RMK AO2
KLVN 140015Z AUTO 32014KT 10SM SCT022 OVC065 M06/M08 A2982 RMK AO2
KLVN 132355Z AUTO 32012KT 10SM SCT022 OVC065 M06/M08 A2981 RMK AO2
KLVN 132335Z AUTO 33014G18KT 10SM -SN BKN022 BKN029 OVC065 M06/M08 A2979 RMK AO2
KLVN 132315Z AUTO 32012G15KT 10SM -SN OVC024 M06/M08 A2977 RMK AO2
KLVN 132255Z AUTO 33011KT 10SM -SN OVC024 M06/M08 A2976 RMK AO2
KLVN 132235Z AUTO 32014G20KT 10SM OVC022 M05/M08 A2975 RMK AO2
KLVN 132215Z AUTO 32009G17KT 10SM OVC022 M05/M08 A2973 RMK AO2
KLVN 132155Z AUTO 33013G19KT 10SM OVC022 M05/M08 A2971 RMK AO2
KLVN 132135Z AUTO 34010G17KT 10SM OVC022 M05/M08 A2970 RMK AO2
KLVN 132115Z AUTO 34014G18KT 10SM OVC022 M05/M08 A2968 RMK AO2
KLVN 132055Z AUTO 32015G19KT 10SM OVC022 M05/M08 A2967 RMK AO2
KLVN 132035Z AUTO 32014G22KT 10SM BKN022 OVC033 M05/M08 A2964 RMK AO2
KLVN 132015Z AUTO 32013G17KT 10SM SCT022 OVC031 M04/M08 A2963 RMK AO2
KLVN 131955Z AUTO 32018G23KT 10SM BKN022 OVC031 M05/M08 A2961 RMK AO2
KLVN 131935Z AUTO 32018G23KT 10SM OVC022 M04/M07 A2960 RMK AO2
KLVN 131915Z AUTO 32019G26KT 10SM OVC020 M04/M07 A2959 RMK AO2
KLVN 131855Z AUTO 32020G25KT 10SM OVC020 M04/M07 A2958 RMK AO2
KLVN 131835Z AUTO 33019G23KT 10SM OVC018 M04/M07 A2957 RMK AO2
KLVN 131815Z AUTO 33016G20KT 10SM OVC014 M04/M06 A2957 RMK AO2
KLVN 131755Z AUTO 31010G19KT 10SM OVC014 M04/M06 A2957 RMK AO2
KLVN 131735Z AUTO 32015KT 10SM OVC014 M03/M06 A2955 RMK AO2
KLVN 131715Z AUTO 32018G28KT 10SM OVC014 M03/M05 A2953 RMK AO2
KLVN 131655Z AUTO 33014G18KT 10SM OVC012 M03/M04 A2952 RMK AO2
KLVN 131635Z AUTO 33017G24KT 10SM OVC012 M03/M05 A2951 RMK AO2
KLVN 131615Z AUTO 33015G25KT 10SM OVC012 M03/M04 A2950 RMK AO2
KLVN 131555Z AUTO 33018G28KT 10SM OVC012 M03/M04 A2948 RMK AO2
KLVN 131535Z AUTO 33017G25KT 10SM OVC010 M03/M04 A2946 RMK AO2
KLVN 131515Z AUTO 32021G26KT 10SM OVC010 M03/M03 A2944 RMK AO2
KLVN 131455Z AUTO 32018G28KT 7SM BKN010 OVC017 M03/M03 A2943 RMK AO2
KLVN 131435Z AUTO 32010KT 3SM -SN SCT010 BKN027 OVC033 M03/M03 A2941 RMK AO2
KLVN 131415Z AUTO 31009KT 1 1/2SM -SN BKN026 OVC080 M03/M03 A2940 RMK AO2
KLVN 131355Z AUTO 32007KT 10SM SCT100 M03/M04 A2938 RMK AO2
KLVN 131335Z AUTO 32010KT 10SM CLR M03/M04 A2937 RMK AO2
KLVN 131315Z AUTO 34006KT 10SM CLR M03/M04 A2935 RMK AO2
KLVN 131256Z AUTO 33007KT 10SM M03/M04 A2934 RMK AO2
KLVN 131235Z AUTO 35003KT 10SM M03/M04 A2932 RMK AO2
KLVN 131215Z AUTO 35003KT 10SM CLR M03/M04 A2931 RMK AO2
KLVN 131155Z AUTO 28003KT 10SM CLR M02/M04 A2932 RMK AO2
KLVN 131135Z AUTO 00000KT 10SM CLR M02/M04 A2931 RMK AO2
KLVN 131115Z AUTO 00000KT 10SM CLR M02/M04 A2931 RMK AO2
KLVN 131055Z AUTO 12004KT 10SM CLR M02/M04 A2931 RMK AO2
KLVN 131035Z AUTO 15003KT 10SM CLR M02/M04 A2933 RMK AO2
KLVN 131015Z AUTO 00000KT 10SM CLR M02/M04 A2936 RMK AO2
KLVN 130955Z AUTO 00000KT 10SM CLR M02/M04 A2937 RMK AO2
KLVN 130935Z AUTO 17004KT 10SM CLR M02/M04 A2937 RMK AO2
KLVN 130915Z AUTO 17004KT 10SM CLR M02/M04 A2939 RMK AO2
KLVN 130855Z AUTO 17004KT 10SM M02/M04 A2940 RMK AO2
KLVN 130835Z AUTO 16005KT 10SM BKN090 M02/M04 A2942 RMK AO2
KLVN 130815Z AUTO 18007KT 10SM BKN090 M02/M04 A2943 RMK AO2
KLVN 130755Z AUTO 19007KT 10SM CLR M02/M04 A2946 RMK AO2
KLVN 130735Z AUTO 19007KT 10SM CLR M02/M04 A2948 RMK AO2
KLVN 130716Z AUTO 19008KT 10SM BKN120 M02/M04 A2949 RMK AO2
KLVN 130655Z AUTO 19007KT 10SM SCT110 M02/M04 A2950 RMK AO2
KLVN 130635Z AUTO 19009KT 10SM BKN110 M02/M04 A2951 RMK AO2
KLVN 130615Z AUTO 19008KT 10SM SCT110 M02/M04 A2954 RMK AO2
KLVN 130555Z AUTO 19007KT 10SM CLR M02/M04 A2956 RMK AO2
KLVN 130535Z AUTO 19005KT 10SM CLR M02/M04 A2959 RMK AO2
KLVN 130516Z AUTO 20005KT 10SM CLR M02/M04 A2961 RMK AO2
KLVN 130455Z AUTO 20006KT 10SM CLR M02/M04 A2962 RMK AO2
KLVN 130435Z AUTO 20004KT 10SM CLR M03/M04 A2964 RMK AO2
KLVN 130415Z AUTO 00000KT 10SM CLR M03/M04 A2967 RMK AO2
KLVN 130355Z AUTO 20005KT 10SM CLR M03/M04 A2968 RMK AO2
KLVN 130335Z AUTO 00000KT 10SM SCT060 M03/M04 A2970 RMK AO2
KLVN 130315Z AUTO 20004KT 10SM BKN060 OVC080 M03/M04 A2972 RMK AO2
KLVN 130255Z AUTO 19005KT 10SM BKN060 OVC080 M03/M04 A2974 RMK AO2
KLVN 130235Z AUTO 19003KT 10SM M04/M06 A2977 RMK AO2
KLVN 130215Z AUTO 17003KT 10SM M05/M06 A2978 RMK AO2
KLVN 130155Z AUTO 16003KT 10SM BKN070 OVC080 M05/M06 A2980 RMK AO2
KLVN 130135Z AUTO 00000KT 10SM M06/M07 A2982 RMK AO2
KLVN 130115Z AUTO 00000KT 10SM BKN080 OVC090 M06/M07 A2982 RMK AO2
KLVN 130055Z AUTO 00000KT 10SM M06/M07 A2984 RMK AO2
KLVN 130035Z AUTO 00000KT 10SM SCT080 BKN090 M07/M08 A2985 RMK AO2
KLVN 130015Z AUTO 00000KT 10SM M07/M08 A2985 RMK AO2
KLVN 122355Z AUTO 14003KT 10SM CLR M07/M08 A2986 RMK AO2
KLVN 122335Z AUTO 14003KT 10SM SCT090 M06/M08 A2988 RMK AO2
KLVN 122315Z AUTO 15003KT 10SM SCT090 M06/M08 A2989 RMK AO2
KLVN 122255Z AUTO 16005KT 10SM BKN035 BKN090 M06/M08 A2991 RMK AO2
KLVN 122235Z AUTO 16005KT 10SM OVC037 M06/M08 A2992 RMK AO2